»·PEaware :: QXE2889 KGEG-KSEA

QXE2889 :: KGEG-KSEA

FLIGHT INFORMATION

Flight Status: Arrived
Operator:
Horizon Air
More flights by this operator :: More flights under this callsign
Pilot: Adlai G. (28854)
Aircraft: DEHAVILLAND DASH 8 400
(DH8D)
More flights by this aircraft type
Origin: KGEG Spokane Intl
United States
Destination: KSEA Seattle-Tacoma Intl
United States
More flights between these airports :: More routes between these airports
Route: TEMPL GLASR1
File this flight plan on PilotEdge
Remarks:
Altitude:
(Current/Filed)
22,000ft
Speed:
(Current/Filed)
367kts
Departed: 11-May-20 08:52 PM
Arrived: 11-May-20 09:37 PM
Distance/Time
Traveled:
194nm/0:44
Distance/Time
To Go:
Arrived

Flight Plot

Page will automatically refresh every two minutes.

Flight plan parsing failed; only flown route is shown


Map Options




Map Legend


Flown Route
Filed Route
Departure Airport
Arrival Airport
Navaid (VOR, NDB)
Fix

Horizontal Profiles

Position Reports

Time Latitude Longitude Heading Altitude Ground
Speed
11-May-20 20:02 47.623726 -117.538276 245 2379ft 0kts
11-May-20 20:03 47.623726 -117.538276 245 2379ft 0kts
11-May-20 20:04 47.623726 -117.538276 245 2379ft 0kts
11-May-20 20:05 47.623726 -117.538276 245 2379ft 0kts
11-May-20 20:06 47.623726 -117.538276 245 2379ft 0kts
11-May-20 20:07 47.623726 -117.538276 245 2379ft 0kts
11-May-20 20:08 47.623726 -117.538276 245 2379ft 0kts
11-May-20 20:09 47.623726 -117.538276 245 2379ft 0kts
11-May-20 20:10 47.623726 -117.538276 245 2379ft 0kts
11-May-20 20:11 47.623726 -117.538276 245 2379ft 0kts
11-May-20 20:12 47.623726 -117.538276 245 2379ft 0kts
11-May-20 20:13 47.623726 -117.538276 245 2379ft 0kts
11-May-20 20:14 47.623726 -117.538276 245 2379ft 0kts
11-May-20 20:15 47.623726 -117.538276 245 2379ft 0kts
11-May-20 20:16 47.623726 -117.538276 245 2379ft 0kts
11-May-20 20:17 47.623726 -117.538276 245 2379ft 0kts
11-May-20 20:18 47.623726 -117.538276 245 2379ft 0kts
11-May-20 20:19 47.623726 -117.538276 245 2379ft 0kts
11-May-20 20:20 47.623726 -117.538276 245 2379ft 0kts
11-May-20 20:21 47.623726 -117.538276 245 2379ft 0kts
11-May-20 20:22 47.623726 -117.538276 245 2379ft 0kts
11-May-20 20:23 47.623726 -117.538276 245 2379ft 0kts
11-May-20 20:24 47.623726 -117.538276 245 2379ft 0kts
11-May-20 20:25 47.623726 -117.538276 245 2379ft 0kts
11-May-20 20:26 47.623726 -117.538276 245 2379ft 0kts
11-May-20 20:27 47.623726 -117.538276 245 2379ft 0kts
11-May-20 20:28 47.623726 -117.538276 245 2379ft 0kts
11-May-20 20:29 47.623726 -117.538276 245 2379ft 0kts
11-May-20 20:30 47.623726 -117.538276 245 2379ft 0kts
11-May-20 20:31 47.623726 -117.538276 245 2379ft 0kts
11-May-20 20:32 47.623726 -117.538276 245 2379ft 0kts
11-May-20 20:33 47.623726 -117.538276 245 2379ft 0kts
11-May-20 20:34 47.623726 -117.538276 245 2379ft 0kts
11-May-20 20:36 47.623726 -117.538276 245 2379ft 0kts
11-May-20 20:37 47.623726 -117.538276 245 2379ft 0kts
11-May-20 20:38 47.623726 -117.538276 245 2379ft 0kts
11-May-20 20:39 47.623726 -117.538276 245 2379ft 0kts
11-May-20 20:40 47.623726 -117.538276 245 2379ft 0kts
11-May-20 20:41 47.623822 -117.537739 255 2379ft 2kts
11-May-20 20:42 47.624284 -117.537286 182 2379ft 0kts
11-May-20 20:43 47.624284 -117.537286 182 2379ft 0kts
11-May-20 20:44 47.624284 -117.537286 182 2379ft 0kts
11-May-20 20:45 47.624278 -117.537286 182 2379ft 0kts
11-May-20 20:46 47.623420 -117.536435 110 2379ft 9kts
11-May-20 20:47 47.623699 -117.533608 45 2379ft 13kts
11-May-20 20:48 47.626931 -117.528726 45 2379ft 15kts
11-May-20 20:49 47.630955 -117.522678 44 2379ft 27kts
11-May-20 20:50 47.631837 -117.519396 137 2379ft 0kts
11-May-20 20:51 47.631103 -117.518540 185 2379ft 7kts
11-May-20 20:52 47.614207 -117.543958 223 3074ft 169kts
11-May-20 20:53 47.577840 -117.600942 224 6275ft 207kts
11-May-20 20:54 47.554190 -117.678861 278 8998ft 233kts
11-May-20 20:55 47.564056 -117.781887 280 11002ft 257kts
11-May-20 20:55 47.574892 -117.875222 279 12068ft 280kts
11-May-20 20:57 47.588131 -118.005172 279 14262ft 274kts
11-May-20 20:57 47.597793 -118.098435 279 15596ft 273kts
11-May-20 20:59 47.611032 -118.228900 278 17231ft 279kts
11-May-20 20:59 47.620375 -118.322128 278 18670ft 270kts
11-May-20 21:01 47.633326 -118.452605 278 20062ft 277kts
11-May-20 21:01 47.642865 -118.547413 278 20902ft 283kts
11-May-20 21:02 47.654876 -118.666499 276 21475ft 301kts
11-May-20 21:03 47.667015 -118.792574 276 21750ft 319kts
11-May-20 21:04 47.679354 -118.926409 276 21758ft 333kts
11-May-20 21:05 47.692340 -119.064171 275 21757ft 342kts
11-May-20 21:06 47.704750 -119.204350 276 21756ft 343kts
11-May-20 21:07 47.717647 -119.345621 275 21756ft 345kts
11-May-20 21:08 47.730249 -119.486716 276 21754ft 346kts
11-May-20 21:09 47.741537 -119.628657 274 21753ft 347kts
11-May-20 21:10 47.752645 -119.771605 274 21752ft 348kts
11-May-20 21:11 47.763679 -119.914132 274 21751ft 348kts
11-May-20 21:12 47.774533 -120.057173 274 21752ft 348kts
11-May-20 21:13 47.785281 -120.200796 274 21753ft 349kts
11-May-20 21:14 47.795848 -120.344490 274 21758ft 350kts
11-May-20 21:15 47.806200 -120.488642 274 21759ft 351kts
11-May-20 21:16 47.816421 -120.632945 274 21769ft 351kts
11-May-20 21:17 47.826484 -120.777526 273 21643ft 352kts
11-May-20 21:18 47.836339 -120.922555 273 20942ft 351kts
11-May-20 21:19 47.846054 -121.067466 273 19557ft 355kts
11-May-20 21:20 47.855641 -121.215064 273 17774ft 359kts
11-May-20 21:21 47.865150 -121.363595 274 16082ft 362kts
11-May-20 21:22 47.874396 -121.510497 274 14251ft 335kts
11-May-20 21:23 47.882969 -121.640607 273 12101ft 301kts
11-May-20 21:24 47.853761 -121.746329 222 10875ft 283kts
11-May-20 21:25 47.796671 -121.825690 220 9676ft 280kts
11-May-20 21:26 47.739102 -121.902695 221 8473ft 275kts
11-May-20 21:27 47.704858 -121.997385 254 7093ft 263kts
11-May-20 21:28 47.685584 -122.097849 255 5289ft 248kts
11-May-20 21:29 47.669333 -122.195637 254 4041ft 243kts
11-May-20 21:30 47.651713 -122.287515 252 3989ft 213kts
11-May-20 21:31 47.604771 -122.315158 170 3154ft 207kts
11-May-20 21:32 47.551920 -122.307023 180 2159ft 162kts
11-May-20 21:33 47.515601 -122.306899 183 1465ft 118kts
11-May-20 21:34 47.484776 -122.307377 180 879ft 107kts
11-May-20 21:35 47.456087 -122.307805 180 441ft 68kts
11-May-20 21:36 47.451058 -122.306254 179 440ft 7kts
11-May-20 21:37 47.447540 -122.306274 180 440ft 17kts
11-May-20 21:38 47.443526 -122.305915 128 440ft 5kts
11-May-20 21:39 47.443650 -122.304620 1 440ft 0kts
11-May-20 21:40 47.443650 -122.304620 1 440ft 0kts
11-May-20 21:41 47.443650 -122.304620 1 440ft 0kts
11-May-20 21:42 47.443650 -122.304620 1 440ft 0kts
11-May-20 21:43 47.443650 -122.304620 1 440ft 0kts
11-May-20 21:44 47.443650 -122.304620 1 440ft 0kts

Navigation Log

Ident Type
Flight plan parsing failed, navigation log unavailable